createdAt,value
2023-04-20T00:00:34.344Z,6.15
2023-04-20T00:03:03.749Z,5.17
2023-04-20T00:05:34.429Z,5.93
2023-04-20T00:08:02.298Z,6.03
2023-04-20T00:10:30.206Z,5.20
2023-04-20T00:12:57.736Z,4.70
2023-04-20T00:15:25.635Z,6.13
2023-04-20T00:17:53.740Z,6.28
2023-04-20T00:20:21.353Z,6.65
2023-04-20T00:22:49.267Z,6.35
2023-04-20T00:25:16.802Z,6.40
2023-04-20T00:27:44.600Z,5.27
2023-04-20T00:30:13.647Z,5.15
2023-04-20T00:32:41.358Z,5.47
2023-04-20T00:35:09.445Z,5.55
2023-04-20T00:37:37.182Z,5.87
2023-04-20T00:40:05.389Z,5.93
2023-04-20T00:42:33.017Z,6.05
2023-04-20T00:45:00.891Z,7.18
2023-04-20T00:47:28.531Z,7.97
2023-04-20T00:49:56.216Z,6.82
2023-04-20T00:52:24.068Z,7.57
2023-04-20T00:54:51.585Z,7.12
2023-04-20T00:57:24.106Z,7.45
2023-04-20T00:59:52.704Z,7.05
2023-04-20T01:02:22.920Z,6.90
2023-04-20T01:04:50.735Z,6.20
2023-04-20T01:07:18.534Z,6.15
2023-04-20T01:09:46.213Z,6.40
2023-04-20T01:12:13.715Z,6.12
2023-04-20T01:14:41.515Z,5.90
2023-04-20T01:17:09.656Z,6.13
2023-04-20T01:19:37.230Z,6.05
2023-04-20T01:22:06.093Z,5.90
2023-04-20T01:24:34.115Z,6.18
2023-04-20T01:27:01.747Z,6.12
2023-04-20T01:29:29.877Z,6.00
2023-04-20T01:31:57.680Z,5.57
2023-04-20T01:34:25.910Z,5.55
2023-04-20T01:36:54.374Z,5.10
2023-04-20T01:39:22.032Z,5.10
2023-04-20T01:41:49.828Z,5.07
2023-04-20T01:44:18.301Z,4.90
2023-04-20T01:46:46.061Z,5.05
2023-04-20T01:49:14.085Z,5.20
2023-04-20T01:51:41.981Z,4.95
2023-04-20T01:54:09.549Z,5.10
2023-04-20T01:56:37.073Z,4.75
2023-04-20T01:59:05.153Z,5.30
2023-04-20T02:01:34.471Z,5.22
2023-04-20T02:04:02.343Z,5.28
2023-04-20T02:06:29.827Z,4.87
2023-04-20T02:08:57.522Z,4.03
2023-04-20T02:11:26.320Z,4.93
2023-04-20T02:13:53.850Z,4.70
2023-04-20T02:16:23.906Z,4.32
2023-04-20T02:18:51.835Z,4.27
2023-04-20T02:21:19.479Z,4.90
2023-04-20T02:23:46.941Z,5.10
2023-04-20T02:26:14.744Z,5.37
2023-04-20T02:28:42.646Z,5.28
2023-04-20T02:31:12.978Z,5.33
2023-04-20T02:33:41.146Z,4.80
2023-04-20T02:36:09.149Z,5.15
2023-04-20T02:38:38.111Z,5.15
2023-04-20T02:41:08.441Z,5.32
2023-04-20T02:43:36.412Z,4.23
2023-04-20T02:46:04.359Z,4.28
2023-04-20T02:48:32.690Z,4.30
2023-04-20T02:51:01.238Z,3.95
2023-04-20T02:53:28.953Z,3.60
2023-04-20T02:55:57.974Z,3.50
2023-04-20T02:58:26.221Z,3.35
2023-04-20T03:01:01.740Z,3.37
2023-04-20T03:03:30.385Z,3.45
2023-04-20T03:05:58.808Z,3.30
2023-04-20T03:08:26.662Z,3.37
2023-04-20T03:10:55.835Z,3.72
2023-04-20T03:13:24.002Z,3.53
2023-04-20T03:15:51.698Z,4.53
2023-04-20T03:18:20.366Z,4.80
2023-04-20T03:20:47.894Z,3.90
2023-04-20T03:23:15.482Z,4.47
2023-04-20T03:25:43.683Z,4.97
2023-04-20T03:28:11.935Z,4.43
2023-04-20T03:30:40.394Z,4.40
2023-04-20T03:33:09.411Z,4.97
2023-04-20T03:35:39.402Z,5.30
2023-04-20T03:38:07.439Z,4.30
2023-04-20T03:40:35.320Z,4.40
2023-04-20T03:43:03.318Z,4.53
2023-04-20T03:45:30.911Z,4.57
2023-04-20T03:47:58.860Z,5.20
2023-04-20T03:50:26.890Z,4.75
2023-04-20T03:52:54.361Z,4.53
2023-04-20T03:55:22.350Z,4.78
2023-04-20T03:57:50.577Z,4.37
2023-04-20T04:00:18.247Z,4.60
2023-04-20T04:02:46.196Z,4.45
2023-04-20T04:05:14.439Z,4.65
2023-04-20T04:07:41.995Z,4.80
2023-04-20T04:10:10.589Z,4.17
2023-04-20T04:12:39.375Z,3.53
2023-04-20T04:15:08.029Z,3.58
2023-04-20T04:17:36.669Z,3.53
2023-04-20T04:20:09.505Z,4.03
2023-04-20T04:22:37.789Z,4.03
2023-04-20T04:25:13.009Z,4.50
2023-04-20T04:27:42.491Z,5.30
2023-04-20T04:30:11.270Z,5.37
2023-04-20T04:32:39.415Z,5.60
2023-04-20T04:35:08.655Z,5.37
2023-04-20T04:37:37.140Z,5.62
2023-04-20T04:40:09.038Z,5.93
2023-04-20T04:42:38.165Z,6.05
2023-04-20T04:45:07.407Z,6.28
2023-04-20T04:47:36.072Z,5.23
2023-04-20T04:50:05.927Z,5.32
2023-04-20T04:52:34.020Z,6.12
2023-04-20T04:55:01.605Z,6.07
2023-04-20T04:57:29.526Z,6.40
2023-04-20T04:59:57.059Z,6.10
2023-04-20T05:02:24.829Z,6.07
2023-04-20T05:04:52.963Z,6.50
2023-04-20T05:07:20.552Z,5.57
2023-04-20T05:09:48.127Z,5.40
2023-04-20T05:12:16.054Z,4.63
2023-04-20T05:14:43.543Z,4.15
2023-04-20T05:17:11.536Z,4.30
2023-04-20T05:19:39.409Z,4.35
2023-04-20T05:22:07.157Z,6.95
2023-04-20T05:24:34.644Z,7.30
2023-04-20T05:27:04.327Z,7.28
2023-04-20T05:29:32.546Z,9.00
2023-04-20T05:32:00.640Z,7.87
2023-04-20T05:34:28.532Z,8.30
2023-04-20T05:36:57.041Z,8.90
2023-04-20T05:39:24.836Z,8.50
2023-04-20T05:41:53.067Z,9.20
2023-04-20T05:44:20.657Z,7.97
2023-04-20T05:46:48.162Z,9.00
2023-04-20T05:49:16.331Z,8.87
2023-04-20T05:51:44.238Z,8.35
2023-04-20T05:54:11.752Z,8.38
2023-04-20T05:56:39.573Z,8.20
2023-04-20T05:59:07.411Z,7.35
2023-04-20T06:01:35.160Z,7.40
2023-04-20T06:04:03.170Z,7.43
2023-04-20T06:06:30.943Z,7.30
2023-04-20T06:08:59.395Z,7.62
2023-04-20T06:11:27.380Z,7.20
2023-04-20T06:13:54.944Z,8.00
2023-04-20T06:16:22.569Z,7.72
2023-04-20T06:18:50.470Z,8.30
2023-04-20T06:21:18.115Z,7.80
2023-04-20T06:23:45.862Z,8.07
2023-04-20T06:26:13.700Z,7.97
2023-04-20T06:28:41.669Z,7.07
2023-04-20T06:31:09.218Z,7.32
2023-04-20T06:33:37.275Z,7.72
2023-04-20T06:36:08.022Z,6.60
2023-04-20T06:38:35.981Z,7.20
2023-04-20T06:41:04.337Z,7.70
2023-04-20T06:43:31.877Z,7.95
2023-04-20T06:45:59.424Z,8.50
2023-04-20T06:48:31.662Z,9.07
2023-04-20T06:51:05.549Z,9.27
2023-04-20T06:53:33.400Z,9.18
2023-04-20T06:56:00.955Z,9.48
2023-04-20T06:58:28.593Z,8.52
2023-04-20T07:00:56.407Z,8.85
2023-04-20T07:03:24.446Z,8.23
2023-04-20T07:05:52.232Z,7.62
2023-04-20T07:08:20.302Z,6.70
2023-04-20T07:10:47.826Z,6.78
2023-04-20T07:13:15.678Z,6.15
2023-04-20T07:15:45.619Z,6.40
2023-04-20T07:18:13.249Z,6.32
2023-04-20T07:20:40.933Z,7.12
2023-04-20T07:23:08.883Z,6.55
2023-04-20T07:25:36.549Z,7.12
2023-04-20T07:28:04.235Z,6.63
2023-04-20T07:30:32.346Z,7.30
2023-04-20T07:32:59.965Z,7.65
2023-04-20T07:35:27.938Z,7.90
2023-04-20T07:37:56.059Z,7.70
2023-04-20T07:40:23.808Z,8.60
2023-04-20T07:42:51.565Z,7.60
2023-04-20T07:45:20.328Z,7.85
2023-04-20T07:47:51.356Z,7.90
2023-04-20T07:50:19.360Z,7.40
2023-04-20T07:52:47.106Z,6.70
2023-04-20T07:55:15.680Z,7.15
2023-04-20T07:57:43.596Z,7.00
2023-04-20T08:00:12.945Z,6.37
2023-04-20T08:02:40.948Z,6.62
2023-04-20T08:05:12.591Z,5.90
2023-04-20T08:07:40.763Z,6.37
2023-04-20T08:10:08.929Z,6.87
2023-04-20T08:12:36.888Z,7.07
2023-04-20T08:15:06.553Z,6.32
2023-04-20T08:17:34.656Z,6.27
2023-04-20T08:20:02.585Z,6.47
2023-04-20T08:22:30.556Z,7.15
2023-04-20T08:24:58.555Z,7.68
2023-04-20T08:27:29.558Z,7.40
2023-04-20T08:29:57.238Z,6.47
2023-04-20T08:32:26.659Z,6.97
2023-04-20T08:34:55.412Z,7.00
2023-04-20T08:37:23.309Z,7.07
2023-04-20T08:39:50.952Z,7.20
2023-04-20T08:42:18.990Z,7.13
2023-04-20T08:44:46.789Z,7.18
2023-04-20T08:47:14.698Z,7.70
2023-04-20T08:49:44.584Z,7.47
2023-04-20T08:52:12.658Z,8.00
2023-04-20T08:54:55.094Z,7.40
2023-04-20T08:57:24.801Z,7.62
2023-04-20T08:59:52.511Z,7.85
2023-04-20T09:02:20.236Z,7.62
2023-04-20T09:04:49.549Z,7.03
2023-04-20T09:07:21.376Z,6.47
2023-04-20T09:10:00.473Z,6.40
2023-04-20T09:12:28.237Z,6.95
2023-04-20T09:14:56.768Z,6.20
2023-04-20T09:17:35.162Z,6.70
2023-04-20T09:20:05.213Z,6.83
2023-04-20T09:22:34.510Z,6.12
2023-04-20T09:25:17.819Z,6.53
2023-04-20T09:28:05.871Z,6.40
2023-04-20T09:30:39.170Z,5.65
2023-04-20T09:33:08.521Z,6.63
2023-04-20T09:35:38.250Z,7.03
2023-04-20T09:38:07.554Z,7.22
2023-04-20T09:40:35.818Z,7.10
2023-04-20T09:43:07.907Z,6.25
2023-04-20T09:45:38.234Z,6.53
2023-04-20T09:48:09.178Z,6.50
2023-04-20T09:50:48.426Z,7.15
2023-04-20T09:53:18.779Z,6.00
2023-04-20T09:55:48.675Z,5.37
2023-04-20T09:58:19.454Z,4.77
2023-04-20T10:00:47.744Z,5.30
2023-04-20T10:03:19.726Z,5.12
2023-04-20T10:05:47.778Z,5.90
2023-04-20T10:08:15.864Z,6.32
2023-04-20T10:10:48.979Z,5.47
2023-04-20T10:13:19.492Z,4.87
2023-04-20T10:15:47.474Z,5.22
2023-04-20T10:18:25.113Z,5.05
2023-04-20T10:21:06.806Z,5.25
2023-04-20T10:23:34.806Z,4.87
2023-04-20T10:26:03.798Z,5.85
2023-04-20T10:28:41.687Z,5.70
2023-04-20T10:31:13.683Z,6.03
2023-04-20T10:33:54.866Z,5.55
2023-04-20T10:36:32.823Z,5.60
2023-04-20T10:39:05.403Z,5.00
2023-04-20T10:41:33.267Z,5.10
2023-04-20T10:44:08.813Z,4.95
2023-04-20T10:46:36.807Z,5.50
2023-04-20T10:49:04.392Z,5.10
2023-04-20T10:51:32.389Z,5.40
2023-04-20T10:54:07.839Z,5.97
2023-04-20T10:56:42.100Z,4.97
2023-04-20T10:59:15.096Z,5.00
2023-04-20T11:01:43.618Z,4.90
2023-04-20T11:04:16.930Z,4.87
2023-04-20T11:06:48.409Z,4.00
2023-04-20T11:09:21.215Z,4.22
2023-04-20T11:12:03.996Z,4.50
2023-04-20T11:14:37.431Z,3.67
2023-04-20T11:17:05.762Z,4.53
2023-04-20T11:19:35.807Z,3.85
2023-04-20T11:22:05.124Z,4.32
2023-04-20T11:24:34.360Z,3.62
2023-04-20T11:27:02.605Z,3.30
2023-04-20T11:29:39.831Z,3.40
2023-04-20T11:32:11.459Z,3.70
2023-04-20T11:34:39.976Z,3.45
2023-04-20T11:37:10.398Z,3.85
2023-04-20T11:39:38.105Z,3.97
2023-04-20T11:42:06.137Z,3.20
2023-04-20T11:44:36.471Z,3.00
2023-04-20T11:47:04.203Z,2.95
2023-04-20T11:49:31.820Z,3.15
2023-04-20T11:51:59.698Z,2.67
2023-04-20T11:54:28.429Z,2.65
2023-04-20T11:56:56.525Z,2.85
2023-04-20T11:59:25.276Z,2.60
2023-04-20T12:01:53.385Z,2.47
2023-04-20T12:04:21.847Z,2.53
2023-04-20T12:06:49.540Z,3.33
2023-04-20T12:09:17.633Z,3.05
2023-04-20T12:11:45.822Z,3.10
2023-04-20T12:14:13.720Z,3.50
2023-04-20T12:16:41.346Z,4.20
2023-04-20T12:19:09.321Z,3.20
2023-04-20T12:21:36.968Z,4.62
2023-04-20T12:24:04.761Z,3.17
2023-04-20T12:26:38.312Z,2.97
2023-04-20T12:29:07.423Z,2.97
2023-04-20T12:31:36.082Z,3.17
2023-04-20T12:34:04.296Z,2.80
2023-04-20T12:36:32.552Z,3.12
2023-04-20T12:39:01.784Z,3.30
2023-04-20T12:41:29.269Z,3.73
2023-04-20T12:43:56.909Z,2.85
2023-04-20T12:46:25.536Z,2.95
2023-04-20T12:48:53.177Z,3.05
2023-04-20T12:51:20.789Z,3.05
2023-04-20T12:53:48.598Z,2.90
2023-04-20T12:56:16.210Z,2.78
2023-04-20T12:58:44.725Z,2.90
2023-04-20T13:01:12.694Z,2.72
2023-04-20T13:03:42.562Z,3.08
2023-04-20T13:06:13.661Z,2.87
2023-04-20T13:08:42.401Z,2.97
2023-04-20T13:11:15.358Z,2.78
2023-04-20T13:13:43.216Z,2.58
2023-04-20T13:16:11.039Z,3.15
2023-04-20T13:18:38.849Z,2.93
2023-04-20T13:21:06.794Z,3.10
2023-04-20T13:23:34.447Z,2.85
2023-04-20T13:26:02.125Z,3.30
2023-04-20T13:28:30.330Z,3.03
2023-04-20T13:30:57.982Z,3.20
2023-04-20T13:33:26.344Z,2.87
2023-04-20T13:35:54.244Z,2.60
2023-04-20T13:38:21.834Z,2.72
2023-04-20T13:40:49.400Z,2.97
2023-04-20T13:43:18.358Z,2.60
2023-04-20T13:45:47.045Z,2.70
2023-04-20T13:48:14.963Z,2.55
2023-04-20T13:50:42.905Z,2.47
2023-04-20T13:53:10.380Z,2.03
2023-04-20T13:55:37.972Z,2.80
2023-04-20T13:58:05.908Z,2.58
2023-04-20T14:00:34.685Z,2.72
2023-04-20T14:03:03.341Z,2.37
2023-04-20T14:05:31.051Z,3.05
2023-04-20T14:08:01.513Z,2.87
2023-04-20T14:10:29.620Z,2.97
2023-04-20T14:12:57.407Z,3.15
2023-04-20T14:15:24.832Z,3.00
2023-04-20T14:17:53.080Z,3.10
2023-04-20T14:20:20.709Z,3.30
2023-04-20T14:22:48.232Z,2.92
2023-04-20T14:25:16.017Z,3.17
2023-04-20T14:27:43.531Z,2.83
2023-04-20T14:30:11.747Z,2.72
2023-04-20T14:32:40.690Z,2.50
2023-04-20T14:35:09.268Z,3.08
2023-04-20T14:37:36.827Z,3.08
2023-04-20T14:40:07.246Z,2.80
2023-04-20T14:42:34.864Z,2.85
2023-04-20T14:45:02.391Z,2.47
2023-04-20T14:47:30.802Z,2.80
2023-04-20T14:49:58.380Z,3.05
2023-04-20T14:52:25.956Z,3.08
2023-04-20T14:54:53.864Z,2.45
2023-04-20T14:57:21.765Z,2.87
2023-04-20T14:59:49.308Z,2.60
2023-04-20T15:02:18.397Z,2.70
2023-04-20T15:04:46.459Z,2.37
2023-04-20T15:07:14.126Z,2.60
2023-04-20T15:09:41.929Z,2.60
2023-04-20T15:12:09.394Z,3.20
2023-04-20T15:14:37.220Z,2.87
2023-04-20T15:17:05.048Z,2.62
2023-04-20T15:19:32.542Z,2.78
2023-04-20T15:22:00.944Z,2.87
2023-04-20T15:24:28.737Z,2.67
2023-04-20T15:26:56.157Z,2.40
2023-04-20T15:29:23.715Z,2.50
2023-04-20T15:31:51.633Z,2.58
2023-04-20T15:34:19.312Z,2.67
2023-04-20T15:36:46.979Z,2.70
2023-04-20T15:39:14.804Z,2.60
2023-04-20T15:41:42.481Z,2.15
2023-04-20T15:44:10.006Z,2.20
2023-04-20T15:46:38.293Z,2.90
2023-04-20T15:49:06.195Z,2.90
2023-04-20T15:51:33.849Z,2.70
2023-04-20T15:54:04.383Z,2.85
2023-04-20T15:56:31.930Z,2.65
2023-04-20T15:58:59.436Z,2.60
2023-04-20T16:01:27.421Z,2.22
2023-04-20T16:03:55.654Z,2.70
2023-04-20T16:06:24.196Z,3.00
2023-04-20T16:08:53.960Z,2.62
2023-04-20T16:11:22.308Z,2.67
2023-04-20T16:13:49.786Z,2.90
2023-04-20T16:16:17.380Z,2.75
2023-04-20T16:18:45.349Z,2.50
2023-04-20T16:21:12.950Z,2.60
2023-04-20T16:23:40.671Z,1.90
2023-04-20T16:26:08.525Z,2.78
2023-04-20T16:28:37.602Z,2.50
2023-04-20T16:31:05.818Z,2.30
2023-04-20T16:33:36.125Z,2.97
2023-04-20T16:36:04.117Z,2.43
2023-04-20T16:38:31.722Z,2.67
2023-04-20T16:41:07.986Z,2.58
2023-04-20T16:43:35.922Z,2.50
2023-04-20T16:46:03.864Z,2.40
2023-04-20T16:48:32.439Z,2.17
2023-04-20T16:51:00.053Z,2.17
2023-04-20T16:53:28.161Z,1.92
2023-04-20T16:55:55.882Z,1.70
2023-04-20T16:58:23.446Z,1.50
2023-04-20T17:00:51.359Z,1.50
2023-04-20T17:03:19.160Z,1.60
2023-04-20T17:05:46.800Z,2.25
2023-04-20T17:08:14.691Z,1.75
2023-04-20T17:10:42.487Z,2.17
2023-04-20T17:13:10.048Z,2.07
2023-04-20T17:15:37.999Z,2.17
2023-04-20T17:18:06.905Z,2.42
2023-04-20T17:20:34.714Z,1.87
2023-04-20T17:23:02.754Z,2.22
2023-04-20T17:25:30.303Z,1.90
2023-04-20T17:27:57.770Z,2.08
2023-04-20T17:30:25.804Z,2.15
2023-04-20T17:32:53.391Z,2.25
2023-04-20T17:35:21.149Z,1.70
2023-04-20T17:37:49.076Z,2.10
2023-04-20T17:40:16.682Z,1.70
2023-04-20T17:42:44.304Z,1.80
2023-04-20T17:45:12.149Z,1.67
2023-04-20T17:47:39.717Z,2.15
2023-04-20T17:50:08.097Z,1.50
2023-04-20T17:52:36.076Z,1.75
2023-04-20T17:55:03.930Z,2.00
2023-04-20T17:57:31.458Z,1.70
2023-04-20T17:59:59.262Z,1.77
2023-04-20T18:02:27.111Z,1.53
2023-04-20T18:04:59.525Z,2.28
2023-04-20T18:07:27.922Z,2.05
2023-04-20T18:09:56.075Z,1.83
2023-04-20T18:12:23.680Z,1.45
2023-04-20T18:14:51.400Z,1.40
2023-04-20T18:17:19.152Z,1.58
2023-04-20T18:19:46.882Z,1.27
2023-04-20T18:22:15.386Z,1.30
2023-04-20T18:24:43.354Z,1.90
2023-04-20T18:27:10.865Z,1.40
2023-04-20T18:29:38.515Z,1.42
2023-04-20T18:32:06.599Z,1.70
2023-04-20T18:34:34.281Z,1.42
2023-04-20T18:37:01.886Z,1.45
2023-04-20T18:39:29.981Z,1.60
2023-04-20T18:41:57.537Z,1.67
2023-04-20T18:44:25.684Z,1.20
2023-04-20T18:46:53.552Z,1.30
2023-04-20T18:49:21.070Z,1.48
2023-04-20T18:51:48.927Z,1.60
2023-04-20T18:54:17.287Z,1.35
2023-04-20T18:56:45.057Z,1.50
2023-04-20T18:59:12.647Z,1.40
2023-04-20T19:01:40.767Z,1.23
2023-04-20T19:04:09.143Z,1.33
2023-04-20T19:06:36.812Z,1.40
2023-04-20T19:09:07.280Z,1.60
2023-04-20T19:11:35.763Z,1.62
2023-04-20T19:14:03.387Z,1.33
2023-04-20T19:16:32.878Z,1.53
2023-04-20T19:19:00.953Z,1.50
2023-04-20T19:21:28.510Z,1.85
2023-04-20T19:23:56.687Z,1.60
2023-04-20T19:26:25.043Z,1.90
2023-04-20T19:28:53.440Z,1.53
2023-04-20T19:31:21.362Z,1.73
2023-04-20T19:33:48.882Z,2.15
2023-04-20T19:36:17.992Z,1.98
2023-04-20T19:38:45.765Z,2.37
2023-04-20T19:41:13.380Z,2.10
2023-04-20T19:43:41.032Z,1.87
2023-04-20T19:46:09.833Z,1.83
2023-04-20T19:48:37.735Z,2.37
2023-04-20T19:51:06.416Z,2.03
2023-04-20T19:53:34.375Z,2.87
2023-04-20T19:56:04.175Z,2.25
2023-04-20T19:58:33.257Z,2.10
2023-04-20T20:01:01.250Z,2.47
2023-04-20T20:03:29.352Z,2.20
2023-04-20T20:05:57.136Z,2.40
2023-04-20T20:08:24.772Z,1.92
2023-04-20T20:10:53.001Z,2.45
2023-04-20T20:13:20.526Z,2.30
2023-04-20T20:15:48.333Z,2.33
2023-04-20T20:18:16.355Z,1.97
2023-04-20T20:20:44.356Z,2.60
2023-04-20T20:23:12.698Z,2.42
2023-04-20T20:25:40.517Z,2.15
2023-04-20T20:28:08.038Z,2.30
2023-04-20T20:30:35.637Z,2.30
2023-04-20T20:33:03.962Z,2.30
2023-04-20T20:35:33.322Z,2.47
2023-04-20T20:38:01.014Z,2.35
2023-04-20T20:40:28.955Z,2.75
2023-04-20T20:42:57.417Z,1.97
2023-04-20T20:45:24.957Z,2.30
2023-04-20T20:47:53.259Z,2.42
2023-04-20T20:50:21.197Z,2.50
2023-04-20T20:52:49.165Z,2.53
2023-04-20T20:55:16.973Z,2.40
2023-04-20T20:57:45.993Z,2.10
2023-04-20T21:00:13.847Z,2.10
2023-04-20T21:02:42.056Z,2.22
2023-04-20T21:05:09.899Z,2.30
2023-04-20T21:07:37.502Z,2.20
2023-04-20T21:10:06.009Z,2.03
2023-04-20T21:12:33.697Z,2.50
2023-04-20T21:15:01.287Z,2.70
2023-04-20T21:17:29.217Z,2.47
2023-04-20T21:19:56.860Z,2.03
2023-04-20T21:22:24.711Z,2.03
2023-04-20T21:24:52.453Z,2.28
2023-04-20T21:27:19.958Z,2.25
2023-04-20T21:29:47.417Z,2.33
2023-04-20T21:32:15.388Z,2.40
2023-04-20T21:34:42.953Z,2.28
2023-04-20T21:37:11.108Z,2.90
2023-04-20T21:39:38.842Z,2.50
2023-04-20T21:42:06.399Z,3.15
2023-04-20T21:44:33.888Z,2.47
2023-04-20T21:47:02.758Z,2.50
2023-04-20T21:49:30.418Z,2.85
2023-04-20T21:51:58.189Z,2.17
2023-04-20T21:54:25.902Z,2.35
2023-04-20T21:56:53.367Z,2.20
2023-04-20T21:59:20.976Z,2.20
2023-04-20T22:01:48.948Z,2.40
2023-04-20T22:04:17.292Z,2.47
2023-04-20T22:06:45.583Z,2.28
2023-04-20T22:09:13.440Z,2.90
2023-04-20T22:11:41.161Z,2.53
2023-04-20T22:14:08.635Z,2.50
2023-04-20T22:16:36.522Z,2.10
2023-04-20T22:19:05.225Z,2.35
2023-04-20T22:21:32.740Z,2.30
2023-04-20T22:24:00.472Z,2.60
2023-04-20T22:26:28.272Z,2.53
2023-04-20T22:28:56.100Z,2.40
2023-04-20T22:31:23.770Z,2.37
2023-04-20T22:33:51.690Z,2.30
2023-04-20T22:36:19.235Z,2.20
2023-04-20T22:38:47.078Z,2.62
2023-04-20T22:41:17.308Z,2.70
2023-04-20T22:43:53.561Z,2.58
2023-04-20T22:46:21.477Z,2.50
2023-04-20T22:48:49.205Z,2.30
2023-04-20T22:51:17.359Z,2.50
2023-04-20T22:53:45.147Z,2.10
2023-04-20T22:56:13.446Z,3.08
2023-04-20T22:58:41.052Z,2.50
2023-04-20T23:01:09.118Z,2.20
2023-04-20T23:03:37.260Z,2.42
2023-04-20T23:06:05.197Z,2.35
2023-04-20T23:08:34.630Z,2.70
2023-04-20T23:11:02.368Z,2.23
2023-04-20T23:13:30.082Z,2.05
2023-04-20T23:15:57.870Z,2.62
2023-04-20T23:18:25.649Z,2.50
2023-04-20T23:20:53.190Z,2.83
2023-04-20T23:23:21.239Z,2.53
2023-04-20T23:25:48.747Z,2.50
2023-04-20T23:28:16.305Z,2.55
2023-04-20T23:30:46.989Z,1.98
2023-04-20T23:33:14.659Z,2.83
2023-04-20T23:35:42.140Z,2.10
2023-04-20T23:38:10.338Z,2.30
2023-04-20T23:40:38.765Z,2.70
2023-04-20T23:43:06.262Z,2.58
2023-04-20T23:45:34.110Z,2.90
2023-04-20T23:48:01.673Z,3.20
2023-04-20T23:50:29.219Z,2.35
2023-04-20T23:52:56.998Z,2.45
2023-04-20T23:55:24.611Z,2.60
2023-04-20T23:57:52.874Z,2.37
